createdAt,value
2018-09-19T00:02:31.181Z,21.60
2018-09-19T00:05:07.787Z,21.20
2018-09-19T00:07:49.446Z,21.40
2018-09-19T00:10:22.911Z,21.40
2018-09-19T00:12:56.290Z,21.30
2018-09-19T00:15:29.679Z,21.10
2018-09-19T00:18:03.071Z,20.70
2018-09-19T00:20:36.460Z,20.80
2018-09-19T00:23:10.298Z,21.00
2018-09-19T00:25:43.819Z,20.90
2018-09-19T00:28:17.184Z,20.90
2018-09-19T00:30:50.591Z,21.00
2018-09-19T00:33:29.711Z,21.00
2018-09-19T00:36:03.544Z,21.00
2018-09-19T00:38:37.082Z,20.90
2018-09-19T00:41:10.467Z,20.90
2018-09-19T00:43:43.821Z,20.90
2018-09-19T00:46:17.191Z,21.00
2018-09-19T00:48:50.606Z,21.00
2018-09-19T00:51:25.098Z,20.90
2018-09-19T00:53:58.461Z,20.80
2018-09-19T00:56:31.858Z,20.60
2018-09-19T00:59:05.249Z,20.60
2018-09-19T01:01:38.627Z,20.60
2018-09-19T01:04:13.014Z,20.60
2018-09-19T01:06:46.384Z,20.70
2018-09-19T01:09:19.740Z,20.80
2018-09-19T01:11:53.106Z,20.80
2018-09-19T01:14:26.459Z,20.60
2018-09-19T01:16:59.834Z,20.50
2018-09-19T01:19:33.199Z,20.40
2018-09-19T01:22:06.670Z,20.30
2018-09-19T01:24:40.019Z,20.40
2018-09-19T01:27:13.391Z,20.50
2018-09-19T01:29:46.842Z,20.60
2018-09-19T01:32:20.208Z,20.60
2018-09-19T01:34:53.555Z,20.50
2018-09-19T01:37:27.090Z,20.00
2018-09-19T01:40:00.459Z,20.00
2018-09-19T01:42:33.842Z,19.80
2018-09-19T01:45:07.208Z,20.00
2018-09-19T01:47:40.580Z,20.10
2018-09-19T01:50:13.935Z,20.10
2018-09-19T01:52:47.299Z,20.10
2018-09-19T01:55:20.661Z,20.10
2018-09-19T01:57:54.026Z,20.00
2018-09-19T02:00:27.380Z,19.90
2018-09-19T02:03:00.762Z,19.70
2018-09-19T02:05:34.128Z,19.70
2018-09-19T02:08:07.556Z,19.70
2018-09-19T02:10:40.923Z,19.60
2018-09-19T02:13:14.298Z,19.70
2018-09-19T02:15:47.661Z,19.80
2018-09-19T02:18:21.032Z,19.90
2018-09-19T02:20:55.430Z,20.00
2018-09-19T02:23:28.794Z,19.70
2018-09-19T02:26:02.150Z,19.80
2018-09-19T02:28:35.604Z,19.90
2018-09-19T02:31:08.936Z,19.90
2018-09-19T02:33:42.332Z,19.90
2018-09-19T02:36:21.990Z,19.80
2018-09-19T02:38:57.394Z,19.80
2018-09-19T02:41:30.755Z,19.70
2018-09-19T02:44:04.138Z,19.80
2018-09-19T02:46:37.511Z,19.80
2018-09-19T02:49:10.898Z,19.80
2018-09-19T02:51:44.248Z,19.70
2018-09-19T02:54:17.703Z,19.70
2018-09-19T02:56:51.060Z,19.60
2018-09-19T02:59:24.426Z,19.60
2018-09-19T03:01:57.773Z,19.60
2018-09-19T03:04:31.242Z,19.50
2018-09-19T03:07:04.593Z,19.50
2018-09-19T03:09:37.966Z,19.50
2018-09-19T03:12:11.728Z,19.50
2018-09-19T03:14:45.097Z,19.50
2018-09-19T03:17:18.555Z,19.50
2018-09-19T03:19:51.861Z,19.50
2018-09-19T03:22:25.218Z,19.40
2018-09-19T03:24:58.629Z,19.30
2018-09-19T03:27:32.051Z,19.40
2018-09-19T03:30:05.783Z,19.30
2018-09-19T03:32:39.156Z,19.30
2018-09-19T03:35:12.570Z,19.40
2018-09-19T03:37:45.918Z,19.50
2018-09-19T03:40:19.327Z,19.50
2018-09-19T03:42:52.776Z,19.50
2018-09-19T03:45:26.203Z,19.50
2018-09-19T03:47:59.603Z,19.50
2018-09-19T03:50:33.016Z,19.60
2018-09-19T03:53:06.465Z,19.60
2018-09-19T03:55:39.947Z,19.50
2018-09-19T03:58:13.370Z,19.40
2018-09-19T04:00:46.786Z,19.40
2018-09-19T04:03:20.214Z,19.40
2018-09-19T04:05:53.675Z,19.40
2018-09-19T04:08:27.094Z,19.40
2018-09-19T04:11:00.542Z,19.50
2018-09-19T04:13:33.972Z,19.50
2018-09-19T04:16:07.409Z,19.50
2018-09-19T04:18:40.824Z,19.50
2018-09-19T04:21:14.276Z,19.50
2018-09-19T04:23:47.677Z,19.40
2018-09-19T04:26:21.095Z,19.50
2018-09-19T04:28:54.506Z,19.80
2018-09-19T04:31:27.940Z,20.10
2018-09-19T04:34:01.354Z,20.00
2018-09-19T04:36:34.781Z,19.90
2018-09-19T04:39:09.772Z,19.80
2018-09-19T04:41:43.195Z,19.70
2018-09-19T04:44:16.602Z,19.70
2018-09-19T04:46:50.067Z,19.60
2018-09-19T04:49:23.488Z,19.50
2018-09-19T04:51:56.913Z,19.50
2018-09-19T04:54:30.342Z,19.50
2018-09-19T04:57:03.778Z,19.50
2018-09-19T04:59:37.187Z,19.60
2018-09-19T05:02:10.590Z,19.60
2018-09-19T05:04:43.988Z,19.70
2018-09-19T05:07:17.444Z,19.40
2018-09-19T05:09:50.832Z,19.50
2018-09-19T05:12:24.279Z,19.50
2018-09-19T05:14:57.685Z,19.50
2018-09-19T05:17:31.104Z,19.40
2018-09-19T05:20:04.568Z,19.50
2018-09-19T05:22:37.990Z,19.30
2018-09-19T05:25:11.391Z,19.30
2018-09-19T05:27:44.806Z,19.40
2018-09-19T05:30:18.213Z,19.60
2018-09-19T05:32:51.628Z,19.30
2018-09-19T05:35:25.039Z,19.20
2018-09-19T05:37:58.454Z,19.10
2018-09-19T05:40:31.874Z,19.10
2018-09-19T05:43:05.299Z,19.00
2018-09-19T05:45:38.783Z,19.00
2018-09-19T05:48:12.243Z,19.10
2018-09-19T05:50:45.640Z,19.10
2018-09-19T05:53:19.058Z,19.10
2018-09-19T05:55:52.496Z,19.00
2018-09-19T05:58:26.107Z,19.00
2018-09-19T06:00:59.569Z,19.10
2018-09-19T06:03:32.996Z,19.10
2018-09-19T06:06:06.451Z,19.00
2018-09-19T06:08:39.863Z,18.80
2018-09-19T06:11:13.259Z,18.80
2018-09-19T06:13:46.703Z,19.00
2018-09-19T06:16:20.112Z,19.10
2018-09-19T06:18:53.528Z,19.10
2018-09-19T06:21:26.960Z,19.10
2018-09-19T06:24:00.399Z,19.10
2018-09-19T06:26:33.847Z,19.10
2018-09-19T06:29:07.440Z,19.20
2018-09-19T06:31:40.847Z,19.20
2018-09-19T06:34:14.291Z,19.30
2018-09-19T06:36:47.692Z,19.20
2018-09-19T06:39:21.164Z,19.20
2018-09-19T06:43:03.344Z,19.20
2018-09-19T06:45:36.801Z,19.10
2018-09-19T06:48:11.279Z,19.10
2018-09-19T06:50:44.689Z,19.20
2018-09-19T06:53:18.113Z,19.30
2018-09-19T06:55:52.609Z,19.40
2018-09-19T06:58:26.040Z,19.50
2018-09-19T07:00:59.450Z,19.60
2018-09-19T07:03:32.862Z,19.60
2018-09-19T07:06:06.461Z,19.60
2018-09-19T07:08:39.888Z,19.70
2018-09-19T07:11:13.417Z,19.70
2018-09-19T07:13:46.880Z,19.80
2018-09-19T07:16:20.398Z,19.90
2018-09-19T07:18:53.847Z,19.90
2018-09-19T07:21:27.226Z,20.10
2018-09-19T07:24:00.655Z,20.20
2018-09-19T07:26:34.051Z,20.40
2018-09-19T07:29:07.496Z,20.50
2018-09-19T07:31:40.963Z,20.50
2018-09-19T07:34:14.379Z,20.40
2018-09-19T07:36:47.799Z,20.50
2018-09-19T07:39:21.241Z,20.70
2018-09-19T07:41:54.746Z,20.80
2018-09-19T07:44:28.164Z,21.00
2018-09-19T07:47:01.559Z,21.00
2018-09-19T07:49:34.986Z,20.90
2018-09-19T07:52:08.453Z,20.90
2018-09-19T07:54:41.887Z,21.00
2018-09-19T07:57:15.295Z,21.00
2018-09-19T07:59:48.719Z,21.10
2018-09-19T08:02:22.225Z,21.30
2018-09-19T08:04:55.938Z,21.40
2018-09-19T08:07:29.335Z,21.50
2018-09-19T08:10:02.764Z,21.70
2018-09-19T08:12:36.175Z,21.90
2018-09-19T08:15:09.606Z,22.10
2018-09-19T08:17:43.032Z,22.20
2018-09-19T08:20:16.467Z,22.10
2018-09-19T08:22:49.950Z,22.10
2018-09-19T08:25:23.451Z,22.30
2018-09-19T08:27:56.862Z,22.20
2018-09-19T08:30:30.295Z,22.30
2018-09-19T08:33:03.708Z,22.60
2018-09-19T08:35:37.172Z,22.80
2018-09-19T08:38:10.664Z,22.90
2018-09-19T08:40:44.219Z,23.00
2018-09-19T08:43:17.699Z,23.00
2018-09-19T08:45:51.107Z,22.90
2018-09-19T08:48:24.513Z,22.90
2018-09-19T08:50:58.015Z,22.80
2018-09-19T08:53:31.416Z,22.90
2018-09-19T08:56:04.928Z,22.90
2018-09-19T08:58:38.337Z,22.90
2018-09-19T09:01:11.798Z,22.90
2018-09-19T09:03:45.516Z,23.00
2018-09-19T09:06:18.955Z,23.20
2018-09-19T09:08:52.357Z,23.10
2018-09-19T09:11:26.838Z,23.10
2018-09-19T09:14:00.235Z,23.00
2018-09-19T09:16:33.654Z,23.20
2018-09-19T09:19:07.071Z,23.40
2018-09-19T09:21:40.506Z,23.60
2018-09-19T09:24:13.903Z,23.80
2018-09-19T09:26:47.497Z,24.00
2018-09-19T09:29:20.876Z,24.10
2018-09-19T09:31:54.311Z,24.10
2018-09-19T09:34:27.711Z,24.10
2018-09-19T09:37:01.142Z,24.00
2018-09-19T09:39:34.559Z,24.00
2018-09-19T09:42:07.993Z,24.00
2018-09-19T09:44:41.406Z,24.00
2018-09-19T09:47:14.838Z,24.00
2018-09-19T09:49:48.253Z,24.20
2018-09-19T09:52:21.695Z,24.50
2018-09-19T09:54:55.087Z,24.60
2018-09-19T09:57:28.499Z,24.80
2018-09-19T10:00:01.974Z,24.80
2018-09-19T10:02:35.446Z,24.80
2018-09-19T10:05:08.861Z,24.80
2018-09-19T10:07:42.282Z,24.80
2018-09-19T10:10:15.756Z,24.90
2018-09-19T10:12:49.187Z,25.00
2018-09-19T10:15:22.593Z,25.10
2018-09-19T10:17:56.006Z,25.40
2018-09-19T10:20:29.405Z,25.50
2018-09-19T10:23:02.867Z,25.70
2018-09-19T10:25:36.561Z,25.80
2018-09-19T10:28:10.059Z,25.80
2018-09-19T10:30:43.451Z,25.90
2018-09-19T10:33:16.961Z,25.90
2018-09-19T10:35:50.478Z,25.90
2018-09-19T10:38:23.896Z,25.80
2018-09-19T10:40:57.323Z,25.80
2018-09-19T10:43:30.839Z,26.00
2018-09-19T10:46:04.259Z,26.00
2018-09-19T10:48:37.706Z,26.00
2018-09-19T10:51:11.139Z,26.10
2018-09-19T10:53:44.571Z,26.10
2018-09-19T10:56:17.978Z,26.40
2018-09-19T10:58:51.408Z,26.50
2018-09-19T11:01:24.823Z,26.30
2018-09-19T11:03:58.251Z,26.10
2018-09-19T11:06:31.678Z,26.20
2018-09-19T11:09:07.539Z,26.40
2018-09-19T11:11:40.955Z,26.40
2018-09-19T11:14:14.446Z,26.40
2018-09-19T11:16:47.891Z,26.40
2018-09-19T11:19:21.335Z,26.50
2018-09-19T11:21:54.722Z,26.60
2018-09-19T11:24:28.174Z,26.80
2018-09-19T11:27:01.566Z,26.90
2018-09-19T11:29:34.975Z,27.10
2018-09-19T11:32:08.394Z,27.10
2018-09-19T11:34:41.869Z,27.20
2018-09-19T11:37:15.265Z,27.20
2018-09-19T11:39:48.705Z,27.30
2018-09-19T11:42:23.150Z,27.20
2018-09-19T11:44:56.676Z,27.40
2018-09-19T11:47:30.067Z,27.60
2018-09-19T11:50:03.576Z,27.50
2018-09-19T11:52:36.987Z,27.50
2018-09-19T11:55:10.411Z,27.60
2018-09-19T11:57:43.835Z,27.70
2018-09-19T12:00:17.375Z,27.80
2018-09-19T12:02:50.836Z,28.00
2018-09-19T12:05:24.403Z,28.10
2018-09-19T12:07:59.683Z,28.10
2018-09-19T12:10:33.147Z,28.00
2018-09-19T12:13:06.651Z,27.90
2018-09-19T12:15:40.115Z,28.10
2018-09-19T12:18:13.519Z,28.20
2018-09-19T12:20:46.956Z,28.20
2018-09-19T12:23:20.362Z,28.30
2018-09-19T12:25:53.815Z,28.30
2018-09-19T12:28:27.259Z,28.30
2018-09-19T12:31:02.430Z,28.40
2018-09-19T12:33:35.826Z,28.40
2018-09-19T12:36:09.306Z,28.50
2018-09-19T12:38:42.751Z,28.50
2018-09-19T12:41:16.191Z,28.60
2018-09-19T12:43:51.890Z,28.70
2018-09-19T12:46:25.331Z,28.70
2018-09-19T12:48:58.758Z,28.70
2018-09-19T12:51:32.213Z,28.70
2018-09-19T12:54:05.628Z,28.70
2018-09-19T12:56:39.080Z,28.70
2018-09-19T12:59:12.523Z,28.70
2018-09-19T13:01:48.718Z,28.80
2018-09-19T13:04:22.314Z,28.90
2018-09-19T13:06:55.742Z,28.90
2018-09-19T13:09:29.172Z,28.90
2018-09-19T13:12:02.638Z,28.90
2018-09-19T13:14:37.107Z,28.80
2018-09-19T13:17:11.280Z,28.70
2018-09-19T13:19:44.718Z,28.70
2018-09-19T13:22:18.152Z,28.80
2018-09-19T13:24:51.561Z,28.80
2018-09-19T13:27:25.065Z,29.00
2018-09-19T13:29:58.511Z,29.10
2018-09-19T13:32:31.919Z,29.10
2018-09-19T13:35:05.344Z,29.20
2018-09-19T13:37:38.768Z,29.20
2018-09-19T13:40:12.336Z,29.20
2018-09-19T13:42:45.743Z,29.20
2018-09-19T13:45:19.179Z,29.40
2018-09-19T13:47:52.577Z,29.40
2018-09-19T13:51:28.591Z,29.30
2018-09-19T13:54:01.994Z,29.30
2018-09-19T13:56:35.419Z,29.30
2018-09-19T13:59:08.879Z,29.30
2018-09-19T14:01:42.295Z,29.30
2018-09-19T14:04:15.714Z,29.40
2018-09-19T14:06:49.143Z,29.50
2018-09-19T14:09:22.635Z,29.50
2018-09-19T14:11:56.071Z,29.60
2018-09-19T14:14:29.480Z,29.60
2018-09-19T14:17:02.938Z,29.60
2018-09-19T14:19:36.369Z,29.70
2018-09-19T14:22:09.885Z,29.70
2018-09-19T14:24:43.284Z,29.60
2018-09-19T14:27:16.724Z,29.70
2018-09-19T14:29:50.515Z,29.70
2018-09-19T14:32:24.055Z,29.70
2018-09-19T14:34:57.508Z,29.80
2018-09-19T14:37:30.918Z,29.80
2018-09-19T14:40:04.494Z,29.80
2018-09-19T14:42:37.936Z,29.80
2018-09-19T14:45:11.351Z,29.80
2018-09-19T14:47:44.799Z,29.90
2018-09-19T14:50:18.214Z,29.90
2018-09-19T14:52:57.652Z,29.90
2018-09-19T14:55:31.068Z,29.90
2018-09-19T14:58:04.601Z,29.90
2018-09-19T15:00:38.136Z,29.90
2018-09-19T15:03:11.564Z,29.90
2018-09-19T15:05:44.956Z,29.90
2018-09-19T15:08:18.459Z,30.00
2018-09-19T15:10:51.936Z,29.90
2018-09-19T15:13:25.463Z,30.00
2018-09-19T15:15:58.863Z,30.00
2018-09-19T15:18:32.287Z,30.00
2018-09-19T15:21:05.879Z,30.00
2018-09-19T15:23:39.303Z,30.00
2018-09-19T15:26:13.533Z,30.00
2018-09-19T15:28:46.952Z,30.00
2018-09-19T15:31:20.388Z,29.80
2018-09-19T15:33:53.802Z,29.90
2018-09-19T15:36:27.215Z,29.90
2018-09-19T15:39:00.660Z,29.90
2018-09-19T15:41:34.072Z,29.90
2018-09-19T15:44:07.502Z,30.00
2018-09-19T15:46:40.927Z,29.90
2018-09-19T15:49:14.319Z,29.90
2018-09-19T15:51:47.751Z,30.00
2018-09-19T15:54:21.147Z,29.90
2018-09-19T15:56:54.566Z,29.90
2018-09-19T15:59:27.975Z,29.80
2018-09-19T16:02:01.426Z,29.80
2018-09-19T16:04:34.904Z,29.90
2018-09-19T16:07:08.392Z,29.90
2018-09-19T16:09:41.807Z,29.80
2018-09-19T16:12:15.240Z,29.80
2018-09-19T16:14:49.723Z,29.80
2018-09-19T16:17:23.155Z,29.80
2018-09-19T16:19:56.559Z,29.90
2018-09-19T16:22:29.978Z,29.80
2018-09-19T16:25:03.451Z,29.80
2018-09-19T16:27:36.875Z,29.70
2018-09-19T16:30:10.301Z,29.80
2018-09-19T16:32:43.737Z,29.80
2018-09-19T16:35:17.155Z,29.80
2018-09-19T16:37:50.588Z,29.80
2018-09-19T16:40:24.012Z,29.90
2018-09-19T16:42:57.423Z,29.90
2018-09-19T16:45:30.915Z,29.80
2018-09-19T16:48:04.391Z,29.80
2018-09-19T16:50:37.792Z,29.80
2018-09-19T16:53:11.227Z,29.70
2018-09-19T16:55:44.636Z,29.70
2018-09-19T16:58:18.054Z,29.60
2018-09-19T17:00:51.487Z,29.50
2018-09-19T17:03:24.915Z,29.50
2018-09-19T17:05:58.323Z,29.40
2018-09-19T17:08:31.800Z,29.30
2018-09-19T17:11:05.323Z,29.20
2018-09-19T17:13:38.753Z,29.20
2018-09-19T17:16:12.180Z,29.10
2018-09-19T17:18:45.712Z,29.00
2018-09-19T17:21:19.108Z,28.90
2018-09-19T17:23:52.527Z,28.80
2018-09-19T17:26:25.947Z,28.70
2018-09-19T17:28:59.509Z,28.70
2018-09-19T17:31:32.932Z,28.60
2018-09-19T17:34:06.360Z,28.60
2018-09-19T17:36:43.652Z,28.50
2018-09-19T17:39:17.157Z,28.40
2018-09-19T17:41:50.575Z,28.40
2018-09-19T17:44:24.070Z,28.30
2018-09-19T17:46:57.562Z,28.20
2018-09-19T17:49:31.062Z,28.20
2018-09-19T17:52:04.507Z,28.10
2018-09-19T17:54:37.931Z,28.10
2018-09-19T17:57:11.461Z,28.00
2018-09-19T17:59:44.900Z,27.90
2018-09-19T18:02:18.370Z,27.90
2018-09-19T18:04:51.812Z,27.80
2018-09-19T18:07:25.310Z,27.70
2018-09-19T18:09:58.736Z,27.70
2018-09-19T18:12:32.170Z,27.60
2018-09-19T18:15:05.812Z,27.50
2018-09-19T18:17:39.339Z,27.50
2018-09-19T18:20:12.767Z,27.40
2018-09-19T18:22:46.214Z,27.40
2018-09-19T18:25:19.638Z,27.30
2018-09-19T18:27:53.032Z,27.30
2018-09-19T18:30:26.548Z,27.30
2018-09-19T18:32:59.958Z,27.20
2018-09-19T18:35:33.581Z,27.10
2018-09-19T18:38:07.206Z,27.00
2018-09-19T18:40:40.643Z,27.00
2018-09-19T18:43:14.130Z,27.00
2018-09-19T18:45:47.567Z,26.90
2018-09-19T18:48:21.011Z,26.70
2018-09-19T18:50:54.518Z,26.70
2018-09-19T18:53:28.750Z,26.70
2018-09-19T18:56:02.239Z,26.80
2018-09-19T18:58:35.660Z,26.90
2018-09-19T19:01:09.827Z,26.70
2018-09-19T19:03:43.292Z,26.50
2018-09-19T19:06:16.735Z,26.40
2018-09-19T19:08:50.219Z,26.20
2018-09-19T19:11:23.773Z,26.20
2018-09-19T19:13:57.190Z,26.20
2018-09-19T19:16:30.626Z,26.10
2018-09-19T19:19:04.072Z,26.10
2018-09-19T19:21:37.513Z,26.00
2018-09-19T19:24:10.922Z,26.10
2018-09-19T19:26:44.339Z,26.00
2018-09-19T19:29:17.736Z,26.10
2018-09-19T19:31:51.157Z,26.00
2018-09-19T19:34:24.564Z,26.00
2018-09-19T19:36:58.007Z,25.90
2018-09-19T19:39:31.415Z,25.90
2018-09-19T19:42:04.901Z,25.90
2018-09-19T19:44:38.342Z,25.70
2018-09-19T19:47:11.812Z,25.70
2018-09-19T19:49:45.211Z,25.70
2018-09-19T19:52:18.624Z,25.70
2018-09-19T19:54:52.032Z,25.50
2018-09-19T19:57:25.508Z,25.50
2018-09-19T19:59:58.906Z,25.50
2018-09-19T20:02:33.303Z,25.50
2018-09-19T20:05:06.747Z,25.40
2018-09-19T20:07:40.167Z,25.40
2018-09-19T20:10:13.643Z,25.40
2018-09-19T20:12:47.371Z,25.40
2018-09-19T20:15:20.791Z,25.30
2018-09-19T20:17:54.259Z,25.40
2018-09-19T20:20:27.683Z,25.40
2018-09-19T20:23:01.159Z,25.30
2018-09-19T20:25:34.610Z,25.30
2018-09-19T20:28:08.023Z,25.30
2018-09-19T20:30:41.443Z,25.20
2018-09-19T20:33:16.937Z,25.50
2018-09-19T20:35:50.339Z,25.40
2018-09-19T20:38:23.804Z,25.30
2018-09-19T20:40:57.287Z,25.30
2018-09-19T20:43:30.711Z,25.20
2018-09-19T20:46:04.127Z,25.20
2018-09-19T20:48:37.544Z,25.10
2018-09-19T20:51:10.972Z,25.00
2018-09-19T20:53:44.434Z,25.00
2018-09-19T20:56:17.835Z,25.00
2018-09-19T20:58:51.259Z,24.90
2018-09-19T21:01:24.671Z,24.90
2018-09-19T21:03:59.132Z,24.80
2018-09-19T21:06:32.659Z,24.90
2018-09-19T21:09:06.506Z,24.80
2018-09-19T21:11:39.905Z,24.80
2018-09-19T21:14:13.343Z,24.80
2018-09-19T21:16:46.752Z,24.70
2018-09-19T21:19:20.291Z,24.70
2018-09-19T21:21:53.753Z,24.70
2018-09-19T21:24:27.223Z,24.60
2018-09-19T21:27:00.624Z,24.50
2018-09-19T21:29:34.191Z,24.40
2018-09-19T21:32:07.617Z,24.10
2018-09-19T21:34:41.056Z,24.10
2018-09-19T21:37:14.458Z,24.00
2018-09-19T21:39:47.906Z,24.10
2018-09-19T21:42:21.308Z,24.10
2018-09-19T21:44:54.727Z,24.00
2018-09-19T21:47:28.128Z,24.10
2018-09-19T21:50:01.551Z,24.10
2018-09-19T21:52:34.948Z,24.10
2018-09-19T21:55:08.385Z,24.10
2018-09-19T21:57:41.775Z,24.10
2018-09-19T22:00:15.548Z,24.10
2018-09-19T22:02:48.948Z,24.00
2018-09-19T22:05:22.375Z,24.00
2018-09-19T22:07:55.780Z,24.00
2018-09-19T22:10:29.807Z,24.00
2018-09-19T22:13:03.228Z,24.10
2018-09-19T22:15:36.722Z,23.80
2018-09-19T22:18:10.127Z,23.50
2018-09-19T22:20:43.675Z,23.00
2018-09-19T22:23:17.075Z,23.00
2018-09-19T22:25:50.549Z,23.30
2018-09-19T22:28:23.976Z,23.40
2018-09-19T22:30:57.395Z,23.40
2018-09-19T22:33:30.795Z,23.30
2018-09-19T22:36:04.247Z,23.50
2018-09-19T22:38:37.664Z,23.50
2018-09-19T22:41:11.208Z,23.40
2018-09-19T22:43:44.607Z,23.50
2018-09-19T22:46:18.063Z,23.30
2018-09-19T22:48:51.461Z,23.20
2018-09-19T22:51:24.871Z,23.00
2018-09-19T22:53:58.313Z,23.10
2018-09-19T22:56:31.735Z,22.70
2018-09-19T22:59:05.184Z,23.00
2018-09-19T23:01:38.606Z,23.00
2018-09-19T23:04:12.048Z,23.10
2018-09-19T23:06:45.480Z,23.10
2018-09-19T23:09:18.953Z,23.10
2018-09-19T23:11:52.366Z,23.10
2018-09-19T23:14:25.871Z,23.10
2018-09-19T23:16:59.306Z,23.10
2018-09-19T23:19:32.694Z,23.10
2018-09-19T23:22:06.164Z,23.00
2018-09-19T23:24:39.563Z,22.60
2018-09-19T23:27:12.995Z,22.30
2018-09-19T23:29:46.396Z,22.20
2018-09-19T23:32:19.812Z,22.40
2018-09-19T23:34:53.211Z,22.60
2018-09-19T23:37:26.640Z,22.70
2018-09-19T23:40:00.064Z,22.70
2018-09-19T23:42:33.499Z,22.70
2018-09-19T23:45:07.036Z,22.80
2018-09-19T23:47:40.446Z,22.80
2018-09-19T23:50:13.931Z,22.80
2018-09-19T23:52:47.322Z,22.70
2018-09-19T23:55:20.895Z,22.80
2018-09-19T23:57:54.414Z,22.80
